createdAt,value
2022-12-26T00:00:59.749Z,13.17
2022-12-26T00:03:27.823Z,13.18
2022-12-26T00:05:57.362Z,13.09
2022-12-26T00:08:25.306Z,12.81
2022-12-26T00:10:53.258Z,12.92
2022-12-26T00:13:38.412Z,13.02
2022-12-26T00:16:09.993Z,12.86
2022-12-26T00:18:38.162Z,13.02
2022-12-26T00:21:07.761Z,12.88
2022-12-26T00:23:36.013Z,12.97
2022-12-26T00:26:05.103Z,12.79
2022-12-26T00:28:33.158Z,12.49
2022-12-26T00:31:04.822Z,12.46
2022-12-26T00:33:32.854Z,12.34
2022-12-26T00:36:02.599Z,12.44
2022-12-26T00:38:32.020Z,12.52
2022-12-26T00:41:00.033Z,12.51
2022-12-26T00:43:28.161Z,12.44
2022-12-26T00:45:56.092Z,12.49
2022-12-26T00:48:24.270Z,12.30
2022-12-26T00:50:52.357Z,12.45
2022-12-26T00:53:20.494Z,12.63
2022-12-26T00:55:49.841Z,12.69
2022-12-26T00:58:17.849Z,12.71
2022-12-26T01:00:46.069Z,12.58
2022-12-26T01:03:14.382Z,12.56
2022-12-26T01:05:43.002Z,12.46
2022-12-26T01:08:22.369Z,12.40
2022-12-26T01:10:53.769Z,12.33
2022-12-26T01:13:21.751Z,12.39
2022-12-26T01:15:50.704Z,12.39
2022-12-26T01:18:19.021Z,12.27
2022-12-26T01:20:47.024Z,12.42
2022-12-26T01:23:15.011Z,12.45
2022-12-26T01:26:17.605Z,12.47
2022-12-26T01:28:32.600Z,12.47
2022-12-26T01:31:02.925Z,12.54
2022-12-26T01:33:31.188Z,12.47
2022-12-26T01:35:59.323Z,12.50
2022-12-26T01:38:27.309Z,12.53
2022-12-26T01:41:15.582Z,12.47
2022-12-26T01:43:54.118Z,12.43
2022-12-26T01:46:23.789Z,12.44
2022-12-26T01:48:52.163Z,12.46
2022-12-26T01:51:20.318Z,12.53
2022-12-26T01:53:49.287Z,12.56
2022-12-26T01:56:18.178Z,12.59
2022-12-26T01:58:47.573Z,12.64
2022-12-26T02:01:17.018Z,12.60
2022-12-26T02:04:03.138Z,12.66
2022-12-26T02:06:31.165Z,12.69
2022-12-26T02:08:59.196Z,12.69
2022-12-26T02:11:28.900Z,12.65
2022-12-26T02:13:56.918Z,12.66
2022-12-26T02:16:26.775Z,12.67
2022-12-26T02:18:54.956Z,12.69
2022-12-26T02:21:34.333Z,12.55
2022-12-26T02:24:22.796Z,12.65
2022-12-26T02:27:22.115Z,12.66
2022-12-26T02:30:34.657Z,12.70
2022-12-26T02:33:23.620Z,12.44
2022-12-26T02:35:58.873Z,12.56
2022-12-26T02:38:31.537Z,12.31
2022-12-26T02:41:04.716Z,12.37
2022-12-26T02:43:35.753Z,12.54
2022-12-26T02:46:24.863Z,12.61
2022-12-26T02:48:57.292Z,12.38
2022-12-26T02:51:56.842Z,12.45
2022-12-26T02:54:48.654Z,12.53
2022-12-26T02:57:38.034Z,12.41
2022-12-26T03:00:25.237Z,12.42
2022-12-26T03:03:12.066Z,12.42
2022-12-26T03:05:59.633Z,12.33
2022-12-26T03:08:48.090Z,12.35
2022-12-26T03:11:33.164Z,12.29
2022-12-26T03:14:06.429Z,12.24
2022-12-26T03:16:52.080Z,12.29
2022-12-26T03:19:20.144Z,12.31
2022-12-26T03:21:49.406Z,12.31
2022-12-26T03:24:17.458Z,12.29
2022-12-26T03:26:47.714Z,12.27
2022-12-26T03:29:36.244Z,12.30
2022-12-26T03:32:05.320Z,12.25
2022-12-26T03:34:33.373Z,12.29
2022-12-26T03:37:48.532Z,12.30
2022-12-26T03:40:51.325Z,12.21
2022-12-26T03:43:43.176Z,12.10
2022-12-26T03:46:47.553Z,12.05
2022-12-26T03:49:35.361Z,11.92
2022-12-26T03:52:24.195Z,11.89
2022-12-26T03:55:14.026Z,11.87
2022-12-26T03:58:02.610Z,11.77
2022-12-26T04:00:47.989Z,11.83
2022-12-26T04:03:33.459Z,11.72
2022-12-26T04:06:20.779Z,11.74
2022-12-26T04:09:20.551Z,11.78
2022-12-26T04:12:07.284Z,11.68
2022-12-26T04:14:59.461Z,11.73
2022-12-26T04:17:50.853Z,11.63
2022-12-26T04:20:23.659Z,11.67
2022-12-26T04:23:10.638Z,11.68
2022-12-26T04:25:58.570Z,11.72
2022-12-26T04:28:46.331Z,11.74
2022-12-26T04:31:33.805Z,11.73
2022-12-26T04:34:20.507Z,11.73
2022-12-26T04:37:08.510Z,11.68
2022-12-26T04:39:53.687Z,11.72
2022-12-26T04:42:39.101Z,11.69
2022-12-26T04:45:09.188Z,11.67
2022-12-26T04:47:37.351Z,11.70
2022-12-26T04:50:15.473Z,11.70
2022-12-26T04:53:01.727Z,11.62
2022-12-26T04:55:30.234Z,11.69
2022-12-26T04:57:58.291Z,11.71
2022-12-26T05:00:28.196Z,11.62
2022-12-26T05:03:18.724Z,11.68
2022-12-26T05:06:10.574Z,11.67
2022-12-26T05:08:57.108Z,11.60
2022-12-26T05:11:25.181Z,11.72
2022-12-26T05:13:53.530Z,11.64
2022-12-26T05:16:40.607Z,11.77
2022-12-26T05:19:28.043Z,11.69
2022-12-26T05:22:13.427Z,11.72
2022-12-26T05:25:00.273Z,11.58
2022-12-26T05:27:46.643Z,11.66
2022-12-26T05:30:14.621Z,11.63
2022-12-26T05:33:01.298Z,11.63
2022-12-26T05:35:29.326Z,11.69
2022-12-26T05:37:57.236Z,11.70
2022-12-26T05:40:25.294Z,11.76
2022-12-26T05:42:53.314Z,11.72
2022-12-26T05:45:21.340Z,11.61
2022-12-26T05:47:52.191Z,11.60
2022-12-26T05:50:20.384Z,11.66
2022-12-26T05:52:50.825Z,11.58
2022-12-26T05:55:19.032Z,11.66
2022-12-26T05:57:46.970Z,11.61
2022-12-26T06:00:16.083Z,11.64
2022-12-26T06:02:44.190Z,11.59
2022-12-26T06:05:13.816Z,11.59
2022-12-26T06:07:41.784Z,11.54
2022-12-26T06:10:10.712Z,11.61
2022-12-26T06:12:38.843Z,11.58
2022-12-26T06:15:07.884Z,11.55
2022-12-26T06:17:35.865Z,11.51
2022-12-26T06:20:03.913Z,11.54
2022-12-26T06:22:33.424Z,11.51
2022-12-26T06:25:02.447Z,11.47
2022-12-26T06:27:30.474Z,11.49
2022-12-26T06:29:58.447Z,11.53
2022-12-26T06:32:26.484Z,11.59
2022-12-26T06:34:54.402Z,11.60
2022-12-26T06:37:22.378Z,11.66
2022-12-26T06:39:51.702Z,11.72
2022-12-26T06:42:19.689Z,11.77
2022-12-26T06:44:47.798Z,11.82
2022-12-26T06:47:15.857Z,11.86
2022-12-26T06:49:43.760Z,11.68
2022-12-26T06:52:13.892Z,11.74
2022-12-26T06:54:41.858Z,11.80
2022-12-26T06:57:11.174Z,11.80
2022-12-26T06:59:39.151Z,11.70
2022-12-26T07:02:07.405Z,11.79
2022-12-26T07:04:35.520Z,11.81
2022-12-26T07:07:03.630Z,11.81
2022-12-26T07:09:33.876Z,11.78
2022-12-26T07:12:02.264Z,11.71
2022-12-26T07:14:31.572Z,11.67
2022-12-26T07:16:59.628Z,11.64
2022-12-26T07:19:27.601Z,11.59
2022-12-26T07:21:55.554Z,11.61
2022-12-26T07:24:23.538Z,11.59
2022-12-26T07:26:51.508Z,11.60
2022-12-26T07:29:19.431Z,11.62
2022-12-26T07:31:49.075Z,11.66
2022-12-26T07:34:17.071Z,11.66
2022-12-26T07:36:45.082Z,11.71
2022-12-26T07:39:14.377Z,11.66
2022-12-26T07:42:00.747Z,11.67
2022-12-26T07:44:29.456Z,11.68
2022-12-26T07:46:58.873Z,11.50
2022-12-26T07:49:27.147Z,11.35
2022-12-26T07:51:55.073Z,11.12
2022-12-26T07:54:23.471Z,10.96
2022-12-26T07:56:51.415Z,10.84
2022-12-26T07:59:19.343Z,10.78
2022-12-26T08:01:47.471Z,10.76
2022-12-26T08:04:17.070Z,10.64
2022-12-26T08:06:46.880Z,10.66
2022-12-26T08:09:16.402Z,10.61
2022-12-26T08:11:45.542Z,10.61
2022-12-26T08:14:13.595Z,10.55
2022-12-26T08:16:42.143Z,10.55
2022-12-26T08:19:10.815Z,10.60
2022-12-26T08:21:40.718Z,10.57
2022-12-26T08:24:09.303Z,10.63
2022-12-26T08:26:37.266Z,10.74
2022-12-26T08:29:05.263Z,10.79
2022-12-26T08:31:33.953Z,10.72
2022-12-26T08:34:01.943Z,10.60
2022-12-26T08:36:30.416Z,10.66
2022-12-26T08:39:00.116Z,10.70
2022-12-26T08:41:28.147Z,10.78
2022-12-26T08:46:44.122Z,10.90
2022-12-26T08:49:12.092Z,10.96
2022-12-26T08:51:40.067Z,11.07
2022-12-26T08:54:09.400Z,11.13
2022-12-26T08:56:37.345Z,11.16
2022-12-26T08:59:05.302Z,11.17
2022-12-26T09:01:33.839Z,11.18
2022-12-26T09:04:03.209Z,11.15
2022-12-26T09:06:32.903Z,11.16
2022-12-26T09:09:00.992Z,11.20
2022-12-26T09:11:30.695Z,11.23
2022-12-26T09:13:59.935Z,11.31
2022-12-26T09:16:34.109Z,11.41
2022-12-26T09:19:05.561Z,11.45
2022-12-26T09:21:33.603Z,11.31
2022-12-26T09:24:02.542Z,11.39
2022-12-26T09:26:32.079Z,11.38
2022-12-26T09:29:00.259Z,11.50
2022-12-26T09:31:29.260Z,11.57
2022-12-26T09:33:57.374Z,11.65
2022-12-26T09:36:26.126Z,11.68
2022-12-26T09:38:56.137Z,11.69
2022-12-26T09:41:41.417Z,11.73
2022-12-26T09:44:14.386Z,11.73
2022-12-26T09:46:44.646Z,11.79
2022-12-26T09:49:13.684Z,11.78
2022-12-26T09:51:42.410Z,11.86
2022-12-26T09:54:12.973Z,11.80
2022-12-26T09:59:30.630Z,12.11
2022-12-26T10:01:58.792Z,11.98
2022-12-26T10:04:30.020Z,12.10
2022-12-26T10:07:03.653Z,12.29
2022-12-26T10:09:46.610Z,12.36
2022-12-26T10:12:41.584Z,12.41
2022-12-26T10:15:16.713Z,12.39
2022-12-26T10:17:48.088Z,12.43
2022-12-26T10:20:21.061Z,12.49
2022-12-26T10:23:19.358Z,12.52
2022-12-26T10:25:48.989Z,12.56
2022-12-26T10:28:19.901Z,12.69
2022-12-26T10:30:47.884Z,12.75
2022-12-26T10:33:18.709Z,12.85
2022-12-26T10:35:47.007Z,12.93
2022-12-26T10:38:28.067Z,12.80
2022-12-26T10:40:57.357Z,12.61
2022-12-26T10:43:29.653Z,12.48
2022-12-26T10:46:29.067Z,12.43
2022-12-26T10:48:57.114Z,12.32
2022-12-26T10:51:25.514Z,12.22
2022-12-26T10:53:53.880Z,12.28
2022-12-26T10:56:21.902Z,12.31
2022-12-26T10:59:01.564Z,12.45
2022-12-26T11:01:37.134Z,12.52
2022-12-26T11:04:06.407Z,12.63
2022-12-26T11:06:38.535Z,12.66
2022-12-26T11:09:06.629Z,12.82
2022-12-26T11:11:46.743Z,12.90
2022-12-26T11:14:36.842Z,12.99
2022-12-26T11:17:07.510Z,12.95
2022-12-26T11:19:37.075Z,12.97
2022-12-26T11:22:24.161Z,13.10
2022-12-26T11:25:16.850Z,13.15
2022-12-26T11:27:46.989Z,12.98
2022-12-26T11:30:21.689Z,13.02
2022-12-26T11:32:51.043Z,13.07
2022-12-26T11:35:19.809Z,13.05
2022-12-26T11:37:48.782Z,13.05
2022-12-26T11:40:18.695Z,13.07
2022-12-26T11:42:50.397Z,13.09
2022-12-26T11:45:22.791Z,13.01
2022-12-26T11:47:50.959Z,13.00
2022-12-26T11:50:28.598Z,12.95
2022-12-26T11:53:06.624Z,12.98
2022-12-26T11:55:35.358Z,12.94
2022-12-26T11:58:10.071Z,12.99
2022-12-26T12:00:40.503Z,12.96
2022-12-26T12:03:12.279Z,13.03
2022-12-26T12:05:45.487Z,13.03
2022-12-26T12:08:29.206Z,13.07
2022-12-26T12:11:05.830Z,12.96
2022-12-26T12:14:09.257Z,13.14
2022-12-26T12:16:46.444Z,13.13
2022-12-26T12:19:34.372Z,13.20
2022-12-26T12:22:11.671Z,13.15
2022-12-26T12:24:50.307Z,13.21
2022-12-26T12:27:20.362Z,13.18
2022-12-26T12:30:19.871Z,12.91
2022-12-26T12:33:01.339Z,12.00
2022-12-26T12:35:44.099Z,11.50
2022-12-26T12:38:36.700Z,11.16
2022-12-26T12:41:12.156Z,10.85
2022-12-26T12:43:44.469Z,10.77
2022-12-26T12:46:17.694Z,10.88
2022-12-26T12:48:55.411Z,11.00
2022-12-26T12:51:28.480Z,11.11
2022-12-26T12:54:14.946Z,11.23
2022-12-26T12:56:44.900Z,11.33
2022-12-26T12:59:26.558Z,11.46
2022-12-26T13:01:57.316Z,11.53
2022-12-26T13:04:29.917Z,11.49
2022-12-26T13:06:59.778Z,11.58
2022-12-26T13:09:29.518Z,11.63
2022-12-26T13:11:59.649Z,11.78
2022-12-26T13:14:32.012Z,11.86
2022-12-26T13:17:04.269Z,11.94
2022-12-26T13:19:38.893Z,12.15
2022-12-26T13:22:10.973Z,12.40
2022-12-26T13:24:39.888Z,12.56
2022-12-26T13:27:19.673Z,12.66
2022-12-26T13:29:48.766Z,12.69
2022-12-26T13:32:21.234Z,12.75
2022-12-26T13:34:51.748Z,12.77
2022-12-26T13:37:59.163Z,12.62
2022-12-26T13:40:29.595Z,12.47
2022-12-26T13:43:18.000Z,12.41
2022-12-26T13:45:54.926Z,12.38
2022-12-26T13:48:57.340Z,12.28
2022-12-26T13:51:46.471Z,12.40
2022-12-26T13:54:15.232Z,12.39
2022-12-26T13:57:16.714Z,12.36
2022-12-26T13:59:48.744Z,12.44
2022-12-26T14:02:43.014Z,12.48
2022-12-26T14:05:18.061Z,12.40
2022-12-26T14:07:49.814Z,12.43
2022-12-26T14:10:19.643Z,12.50
2022-12-26T14:12:53.757Z,12.56
2022-12-26T14:15:35.425Z,12.69
2022-12-26T14:18:20.657Z,12.69
2022-12-26T14:20:51.985Z,12.81
2022-12-26T14:23:28.126Z,12.82
2022-12-26T14:26:00.531Z,12.89
2022-12-26T14:28:30.516Z,12.94
2022-12-26T14:31:07.795Z,12.80
2022-12-26T14:33:39.527Z,13.03
2022-12-26T14:36:20.535Z,13.01
2022-12-26T14:38:53.071Z,13.02
2022-12-26T14:41:42.318Z,12.96
2022-12-26T14:44:12.049Z,13.00
2022-12-26T14:47:07.279Z,13.09
2022-12-26T14:49:39.830Z,13.12
2022-12-26T14:52:40.688Z,13.29
2022-12-26T14:55:46.827Z,13.32
2022-12-26T14:58:26.680Z,13.29
2022-12-26T15:00:55.779Z,13.25
2022-12-26T15:03:45.763Z,13.33
2022-12-26T15:06:53.082Z,13.39
2022-12-26T15:09:45.840Z,13.50
2022-12-26T15:12:51.324Z,13.63
2022-12-26T15:15:34.999Z,13.55
2022-12-26T15:18:47.570Z,13.50
2022-12-26T15:21:24.442Z,13.45
2022-12-26T15:24:06.913Z,13.34
2022-12-26T15:27:06.490Z,13.32
2022-12-26T15:29:58.109Z,13.40
2022-12-26T15:32:31.199Z,13.40
2022-12-26T15:35:14.100Z,13.35
2022-12-26T15:38:05.856Z,13.34
2022-12-26T15:40:36.460Z,13.17
2022-12-26T15:43:26.329Z,13.28
2022-12-26T15:45:56.872Z,13.20
2022-12-26T15:48:34.495Z,13.21
2022-12-26T15:51:03.891Z,13.19
2022-12-26T15:53:38.475Z,13.13
2022-12-26T15:56:40.519Z,13.13
2022-12-26T15:59:27.079Z,12.93
2022-12-26T16:01:55.698Z,12.87
2022-12-26T16:04:26.739Z,12.84
2022-12-26T16:07:04.558Z,12.71
2022-12-26T16:09:38.814Z,12.68
2022-12-26T16:12:22.607Z,12.56
2022-12-26T16:14:51.115Z,12.64
2022-12-26T16:17:22.134Z,12.64
2022-12-26T16:19:52.192Z,12.65
2022-12-26T16:22:44.021Z,12.58
2022-12-26T16:25:12.716Z,12.61
2022-12-26T16:27:40.746Z,12.56
2022-12-26T16:30:14.467Z,12.72
2022-12-26T16:32:43.195Z,12.81
2022-12-26T16:35:19.888Z,12.84
2022-12-26T16:37:48.029Z,12.72
2022-12-26T16:40:21.479Z,12.50
2022-12-26T16:42:57.256Z,12.30
2022-12-26T16:45:25.243Z,12.24
2022-12-26T16:47:53.730Z,11.79
2022-12-26T16:50:24.427Z,11.81
2022-12-26T16:53:01.856Z,11.49
2022-12-26T16:55:38.827Z,10.99
2022-12-26T16:58:14.551Z,10.69
2022-12-26T17:00:47.632Z,10.71
2022-12-26T17:03:25.006Z,10.67
2022-12-26T17:05:54.420Z,10.72
2022-12-26T17:08:22.662Z,10.51
2022-12-26T17:10:51.003Z,10.75
2022-12-26T17:13:20.890Z,10.69
2022-12-26T17:15:51.993Z,10.80
2022-12-26T17:18:46.631Z,10.88
2022-12-26T17:21:24.277Z,10.90
2022-12-26T17:24:16.207Z,10.99
2022-12-26T17:26:44.888Z,11.04
2022-12-26T17:29:37.097Z,11.14
2022-12-26T17:32:08.238Z,11.17
2022-12-26T17:34:36.758Z,11.19
2022-12-26T17:37:18.871Z,11.30
2022-12-26T17:39:52.254Z,11.42
2022-12-26T17:42:20.280Z,11.58
2022-12-26T17:44:48.213Z,11.71
2022-12-26T17:47:20.830Z,11.74
2022-12-26T17:49:48.922Z,11.79
2022-12-26T17:52:20.501Z,11.94
2022-12-26T17:54:49.522Z,11.98
2022-12-26T17:57:19.502Z,12.05
2022-12-26T17:59:47.784Z,12.08
2022-12-26T18:02:15.793Z,12.07
2022-12-26T18:04:44.382Z,12.05
2022-12-26T18:07:13.941Z,12.08
2022-12-26T18:09:43.295Z,12.14
2022-12-26T18:12:12.429Z,12.15
2022-12-26T18:14:40.437Z,12.29
2022-12-26T18:17:08.642Z,12.12
2022-12-26T18:19:36.818Z,12.43
2022-12-26T18:22:04.822Z,12.55
2022-12-26T18:24:32.810Z,12.63
2022-12-26T18:27:02.172Z,12.53
2022-12-26T18:29:30.108Z,12.66
2022-12-26T18:31:58.620Z,12.65
2022-12-26T18:34:28.648Z,12.83
2022-12-26T18:36:56.740Z,12.86
2022-12-26T18:39:25.245Z,12.88
2022-12-26T18:41:53.513Z,12.87
2022-12-26T18:44:22.833Z,12.94
2022-12-26T18:46:51.833Z,13.02
2022-12-26T18:49:19.828Z,13.07
2022-12-26T18:51:47.763Z,13.04
2022-12-26T18:54:15.784Z,13.02
2022-12-26T18:56:43.736Z,13.01
2022-12-26T18:59:13.233Z,12.93
2022-12-26T19:01:43.230Z,12.83
2022-12-26T19:04:11.725Z,12.78
2022-12-26T19:06:39.803Z,12.79
2022-12-26T19:09:07.760Z,12.88
2022-12-26T19:11:35.706Z,12.87
2022-12-26T19:14:07.752Z,12.80
2022-12-26T19:16:35.973Z,12.84
2022-12-26T19:19:05.347Z,12.78
2022-12-26T19:21:33.487Z,12.85
2022-12-26T19:24:01.521Z,12.80
2022-12-26T19:26:29.527Z,12.78
2022-12-26T19:28:57.733Z,12.85
2022-12-26T19:31:25.803Z,12.82
2022-12-26T19:33:53.784Z,12.83
2022-12-26T19:36:23.180Z,12.81
2022-12-26T19:38:53.215Z,12.89
2022-12-26T19:41:21.189Z,12.89
2022-12-26T19:43:49.191Z,12.82
2022-12-26T19:46:17.275Z,12.82
2022-12-26T19:48:45.328Z,12.80
2022-12-26T19:51:14.647Z,12.83
2022-12-26T19:53:44.681Z,12.80
2022-12-26T19:56:13.508Z,12.78
2022-12-26T19:58:41.494Z,12.73
2022-12-26T20:01:10.072Z,12.79
2022-12-26T20:03:38.469Z,12.87
2022-12-26T20:06:10.783Z,12.82
2022-12-26T20:08:38.895Z,12.87
2022-12-26T20:11:09.309Z,12.93
2022-12-26T20:13:37.393Z,12.80
2022-12-26T20:16:06.006Z,12.75
2022-12-26T20:18:35.469Z,12.59
2022-12-26T20:21:03.598Z,12.47
2022-12-26T20:23:31.499Z,12.43
2022-12-26T20:25:59.852Z,12.41
2022-12-26T20:28:29.311Z,12.41
2022-12-26T20:31:00.639Z,12.41
2022-12-26T20:33:28.707Z,12.37
2022-12-26T20:36:03.576Z,12.35
2022-12-26T20:38:31.585Z,12.41
2022-12-26T20:40:59.592Z,12.42
2022-12-26T20:43:29.207Z,12.49
2022-12-26T20:46:00.711Z,12.52
2022-12-26T20:48:31.075Z,12.50
2022-12-26T20:51:00.223Z,12.64
2022-12-26T20:53:28.263Z,12.71
2022-12-26T20:55:57.400Z,12.78
2022-12-26T20:58:25.952Z,12.85
2022-12-26T21:00:58.170Z,12.75
2022-12-26T21:03:26.320Z,12.79
2022-12-26T21:05:54.222Z,12.79
2022-12-26T21:08:22.205Z,12.75
2022-12-26T21:10:50.153Z,12.66
2022-12-26T21:13:18.234Z,12.61
2022-12-26T21:15:46.425Z,12.45
2022-12-26T21:18:15.878Z,12.50
2022-12-26T21:20:43.793Z,12.51
2022-12-26T21:23:11.768Z,12.43
2022-12-26T21:25:39.661Z,12.36
2022-12-26T21:28:07.635Z,12.29
2022-12-26T21:30:35.585Z,12.26
2022-12-26T21:33:03.688Z,12.23
2022-12-26T21:35:33.027Z,12.18
2022-12-26T21:38:01.288Z,12.11
2022-12-26T21:40:29.414Z,12.12
2022-12-26T21:42:57.464Z,12.09
2022-12-26T21:45:26.340Z,12.10
2022-12-26T21:47:54.395Z,12.09
2022-12-26T21:50:22.782Z,12.06
2022-12-26T21:52:52.222Z,12.09
2022-12-26T21:55:27.956Z,12.07
2022-12-26T21:57:56.109Z,12.00
2022-12-26T22:00:24.089Z,11.99
2022-12-26T22:03:09.463Z,12.02
2022-12-26T22:05:40.498Z,11.94
2022-12-26T22:08:11.801Z,11.93
2022-12-26T22:10:58.417Z,11.96
2022-12-26T22:13:26.810Z,11.92
2022-12-26T22:16:05.352Z,11.95
2022-12-26T22:18:35.073Z,11.89
2022-12-26T22:21:04.697Z,11.96
2022-12-26T22:23:34.107Z,11.95
2022-12-26T22:26:02.037Z,12.03
2022-12-26T22:28:30.692Z,12.08
2022-12-26T22:30:58.928Z,12.11
2022-12-26T22:33:26.917Z,12.12
2022-12-26T22:35:54.903Z,12.13
2022-12-26T22:38:23.598Z,12.06
2022-12-26T22:40:59.679Z,12.05
2022-12-26T22:43:27.860Z,11.90
2022-12-26T22:45:55.891Z,11.89
2022-12-26T22:48:23.994Z,11.80
2022-12-26T22:50:52.961Z,11.74
2022-12-26T22:53:22.599Z,11.68
2022-12-26T22:55:51.465Z,11.65
2022-12-26T22:58:20.981Z,11.62
2022-12-26T23:00:49.175Z,11.64
2022-12-26T23:03:17.275Z,11.66
2022-12-26T23:05:45.610Z,11.70
2022-12-26T23:08:17.211Z,11.70
2022-12-26T23:10:46.090Z,11.76
2022-12-26T23:13:14.622Z,11.79
2022-12-26T23:15:54.729Z,11.77
2022-12-26T23:18:45.867Z,11.76
2022-12-26T23:21:36.750Z,11.78
2022-12-26T23:24:05.070Z,11.77
2022-12-26T23:26:33.047Z,11.80
2022-12-26T23:29:18.346Z,11.84
2022-12-26T23:31:47.662Z,11.83
2022-12-26T23:34:15.620Z,11.81
2022-12-26T23:36:43.556Z,11.79
2022-12-26T23:39:11.738Z,11.88
2022-12-26T23:41:39.648Z,11.89
2022-12-26T23:44:07.623Z,11.78
2022-12-26T23:46:35.696Z,11.75
2022-12-26T23:49:05.507Z,11.80
2022-12-26T23:51:33.426Z,11.76
2022-12-26T23:54:01.611Z,11.58
2022-12-26T23:56:29.531Z,11.61
2022-12-26T23:58:57.625Z,11.49
